• Join FlightAware (Why Join?)
  • Login
  • US Flag 
03:24PM EDT


 

Airport Tracker/Info


-or-


 

Live Flight TrackerFlight Track Log ✈ UAL33 ✈ 04-Oct-2013 ✈ RJAA / NRT - KLAX

Flight Track Log - Related Links

Times and Time Zones

All times are in EDT time to prevent confusion due to time zone crossing. See the UAL33 flight status page for this flight to view local times or setup timezone preferences in your user account.

Time Position Orientation Groundspeed Altitude Reporting Facility
EDT Latitude Longitude Course Direction KTS MPH feet Rate Location/Type
05:58AM 35.7820 140.3620 329° Northwest 164 189 1,400  Level FlightAware
05:58AM 35.7940 140.3530 329° Northwest 170 196 2,100 1,800 Climbing FlightAware
05:58AM 35.8100 140.3430 333° Northwest 189 217 2,600 1,680 Climbing FlightAware
05:59AM 35.8230 140.3330 328° Northwest 193 222 3,200 1,500 Climbing FlightAware
05:59AM 35.8460 140.3170 331° Northwest 229 264 3,700 1,200 Climbing FlightAware
06:00AM 35.8640 140.3030 328° Northwest 254 292 4,100 1,500 Climbing FlightAware
06:00AM 35.8860 140.2880 331° Northwest 274 315 4,700 1,800 Climbing FlightAware
06:00AM 35.8980 140.2820 338° Northwest 276 318 5,100 2,100 Climbing FlightAware
06:00AM 35.9110 140.2800 353° North 271 312 5,400 1,260 Climbing FlightAware
06:01AM 35.9340 140.2900 19° North 267 307 5,700 780 Climbing FlightAware
06:01AM 35.9420 140.3010 48° Northeast 266 306 5,800 420 Climbing FlightAware
06:01AM 35.9450 140.3060 53° Northeast 267 307 5,800  Level FlightAware
06:01AM 35.9480 140.3180 73° East 267 307 5,800 -480 Level FlightAware
06:01AM 35.9490 140.3270 82° East 268 308 5,700 -240 Descending FlightAware
06:01AM 35.9420 140.3590 105° East 269 310 5,700 120 Level FlightAware
06:02AM 35.9300 140.3860 119° Southeast 269 310 5,800 1,200 Climbing FlightAware
06:02AM 35.9150 140.4100 128° Southeast 270 311 6,500 2,580 Climbing FlightAware
06:02AM 35.8950 140.4430 127° Southeast 273 314 7,800 2,580 Climbing FlightAware
06:03AM 35.8800 140.4680 127° Southeast 281 323 8,500 2,400 Climbing FlightAware
06:03AM 35.8640 140.4940 127° Southeast 285 328 9,400 2,100 Climbing FlightAware
06:04AM 35.8340 140.5430 127° Southeast 312 359 10,500 1,500 Climbing FlightAware
06:04AM 35.8050 140.5900 127° Southeast 346 398 11,100 1,320 Climbing FlightAware
06:05AM 35.7680 140.6510 127° Southeast 379 436 12,000 1,980 Climbing FlightAware
06:05AM 35.7320 140.7150 125° Southeast 395 455 13,500 2,520 Climbing FlightAware
06:06AM 35.7210 140.7440 115° Southeast 403 464 14,100 2,400 Climbing FlightAware
06:06AM 35.7150 140.7810 101° East 404 465 14,700 1,140 Climbing FlightAware
06:07AM 35.7200 140.8710 86° East 412 474 15,200 1,560 Climbing FlightAware
06:07AM 35.7310 140.9550 81° East 420 483 16,700 2,220 Climbing FlightAware
06:08AM 35.7420 141.0320 80° East 430 495 17,800 2,040 Climbing FlightAware
06:08AM 35.7680 141.1220 70° East 445 512 19,100 1,980 Climbing FlightAware
06:09AM 35.7920 141.1940 68° East 450 518 20,100 1,680 Climbing FlightAware
06:10AM 35.8230 141.2840 67° East 463 533 21,100 1,500 Climbing FlightAware
06:10AM 35.8510 141.3670 67° East 475 547 21,900 1,020 Climbing FlightAware
06:11AM 35.8820 141.4580 67° East 500 575 22,300 780 Climbing FlightAware
06:12AM 35.9180 141.5660 68° East 520 598 23,000 1,200 Climbing FlightAware
06:12AM 35.9630 141.7010 68° East 527 606 24,200 1,680 Climbing FlightAware
06:13AM 35.9960 141.8020 68° East 532 612 25,200 1,500 Climbing FlightAware
06:13AM 36.0280 141.8960 67° East 538 619 26,000 1,440 Climbing FlightAware
06:14AM 36.0630 142.0030 68° East 542 624 26,900 1,380 Climbing FlightAware
06:14AM 36.0890 142.0820 68° East 548 631 27,500 1,140 Climbing FlightAware
06:15AM 36.1280 142.2020 68° East 555 639 28,300 1,500 Climbing FlightAware
06:16AM 36.1640 142.3100 68° East 553 636 29,400 1,680 Climbing FlightAware
06:16AM 36.1940 142.4050 69° East 547 629 30,300 1,440 Climbing FlightAware
06:17AM 36.2300 142.5140 68° East 548 631 31,100 1,260 Climbing FlightAware
06:17AM 36.2630 142.6180 68° East 552 635 31,800 1,260 Climbing FlightAware
06:18AM 36.2950 142.7170 68° East 552 635 32,600 1,320 Climbing FlightAware
06:19AM 36.3300 142.8240 68° East 553 636 33,400 1,200 Climbing FlightAware
06:19AM 36.3630 142.9280 68° East 556 640 34,000 1,020 Climbing FlightAware
06:20AM 36.3960 143.0330 69° East 562 647 34,600 1,020 Climbing FlightAware
06:20AM 36.4290 143.1360 68° East 559 643 35,200 1,080 Climbing FlightAware
06:21AM 36.4620 143.2390 68° East 559 643 35,900 1,020 Climbing FlightAware
06:22AM 36.4950 143.3430 68° East 560 644 36,400 660 Climbing FlightAware
06:22AM 36.5290 143.4530 69° East 570 656 36,700 180 Climbing FlightAware
06:23AM 36.5630 143.5570 68° East 570 656 36,700 420 Level FlightAware
06:23AM 36.5950 143.6590 69° East 570 656 37,300 480 Climbing FlightAware
06:24AM 36.6250 143.7530 68° East 570 656 37,300  Level FlightAware
06:25AM 36.6560 143.8490 68° East 570 656 37,300 1,140 Level FlightAware
06:25AM 36.7170 144.0570 70° East 574 661 39,000 1,140 Climbing FlightAware
06:26AM 36.7470 144.1540 69° East 574 661 39,000  Level FlightAware
06:27AM 36.7760 144.2490 69° East 574 661 39,000  Level FlightAware
06:27AM 36.8050 144.3440 69° East 574 661 39,000  Level FlightAware
06:28AM 36.8580 144.5210 69° East 570 656 39,000  Level FlightAware
06:29AM 36.8850 144.6160 70° East 570 656 39,000  Level FlightAware
06:29AM 36.9130 144.7110 70° East 570 656 39,000  Level FlightAware
06:30AM 36.9610 144.8640 69° East 39,000  Level FlightAware
06:32AM 37.0650 145.2120 69° East 570 656 39,000  Level FlightAware
06:32AM 37.1000 145.3350 70° East 570 656 39,000  Level FlightAware
06:33AM 37.1280 145.4300 70° East 570 656 39,000  Level FlightAware
06:34AM 37.1560 145.5280 70° East 570 656 39,000  Level FlightAware
06:34AM 37.1840 145.6230 70° East 570 656 39,000  Level FlightAware
06:35AM 37.2610 145.7930 60° Northeast 39,000  Level FlightAware
06:35AM 37.3110 145.8940 58° Northeast 566 651 39,000  Level FlightAware
06:36AM 37.3670 146.0050 58° Northeast 564 649 39,000  Level FlightAware
06:37AM 37.4090 146.0900 58° Northeast 564 649 39,000  Level FlightAware
06:37AM 37.4720 146.2190 58° Northeast 918 1056 39,000 -60 Level FlightAware
06:40AM 37.6274 146.5504 59° Northeast  Level Estimated
06:41AM 37.7016 146.7099 60° Northeast  Level Estimated
06:42AM 37.7756 146.8698 60° Northeast  Level Estimated
06:43AM 37.8494 147.0300 60° Northeast  Level Estimated
06:44AM 37.9230 147.1905 60° Northeast  Level Estimated
06:45AM 37.9964 147.3513 60° Northeast  Level Estimated
06:46AM 38.0696 147.5125 60° Northeast  Level Estimated
06:47AM 38.1425 147.6740 60° Northeast  Level Estimated
06:48AM 38.2152 147.8358 60° Northeast  Level Estimated
06:49AM 38.2877 147.9979 60° Northeast  Level Estimated
06:50AM 38.3600 148.1603 60° Northeast  Level Estimated
06:51AM 38.4320 148.3231 60° Northeast  Level Estimated
06:52AM 38.5039 148.4862 61° Northeast  Level Estimated
06:53AM 38.5755 148.6496 61° Northeast  Level Estimated
06:54AM 38.6468 148.8133 61° Northeast  Level Estimated
06:55AM 38.7179 148.9774 61° Northeast  Level Estimated
06:56AM 38.7889 149.1418 61° Northeast  Level Estimated
06:57AM 38.8595 149.3065 61° Northeast  Level Estimated
06:58AM 38.9300 149.4716 61° Northeast  Level Estimated
06:59AM 39.0002 149.6370 61° Northeast  Level Estimated
07:00AM 39.0702 149.8027 61° Northeast  Level Estimated
07:01AM 39.1399 149.9687 62° Northeast  Level Estimated
07:02AM 39.2094 150.1351 62° Northeast  Level Estimated
07:03AM 39.2787 150.3017 62° Northeast  Level Estimated
07:04AM 39.3477 150.4688 62° Northeast  Level Estimated
07:05AM 39.4165 150.6361 62° Northeast  Level Estimated
07:06AM 39.4851 150.8038 62° Northeast  Level Estimated
07:07AM 39.5534 150.9718 62° Northeast  Level Estimated
07:08AM 39.6214 151.1402 62° Northeast  Level Estimated
07:09AM 39.6893 151.3088 62° Northeast  Level Estimated
07:10AM 39.7568 151.4778 62° Northeast  Level Estimated
07:11AM 39.8242 151.6472 63° Northeast  Level Estimated
07:12AM 39.8913 151.8168 63° Northeast  Level Estimated
07:13AM 39.9581 151.9868 63° Northeast  Level Estimated
07:14AM 40.0247 152.1572 63° Northeast  Level Estimated
07:15AM 40.0910 152.3278 63° Northeast  Level Estimated
07:16AM 40.1571 152.4988 63° Northeast  Level Estimated
07:17AM 40.2230 152.6702 63° Northeast  Level Estimated
07:18AM 40.2886 152.8418 63° Northeast  Level Estimated
07:19AM 40.3539 153.0138 63° Northeast  Level Estimated
07:20AM 40.4190 153.1861 64° Northeast  Level Estimated
07:21AM 40.4838 153.3588 64° Northeast  Level Estimated
07:22AM 40.5483 153.5318 64° Northeast  Level Estimated
07:23AM 40.6126 153.7051 64° Northeast  Level Estimated
07:24AM 40.6767 153.8788 64° Northeast  Level Estimated
07:25AM 40.7405 154.0528 64° Northeast  Level Estimated
07:26AM 40.8040 154.2271 64° Northeast  Level Estimated
07:27AM 40.8672 154.4017 64° Northeast  Level Estimated
07:28AM 40.9302 154.5767 64° Northeast  Level Estimated
07:29AM 40.9930 154.7521 65° Northeast  Level Estimated
07:30AM 41.0554 154.9277 65° Northeast  Level Estimated
07:31AM 41.1176 155.1037 65° Northeast  Level Estimated
07:32AM 41.1796 155.2800 65° Northeast  Level Estimated
07:33AM 41.2412 155.4567 65° Northeast  Level Estimated
07:34AM 41.3026 155.6337 65° Northeast  Level Estimated
07:35AM 41.3637 155.8110 65° Northeast  Level Estimated
07:36AM 41.4246 155.9887 65° Northeast  Level Estimated
07:37AM 41.4851 156.1667 66° East  Level Estimated
07:38AM 41.5454 156.3450 66° East  Level Estimated
07:39AM 41.6054 156.5236 66° East  Level Estimated
07:40AM 41.6652 156.7026 66° East  Level Estimated
07:41AM 41.7246 156.8819 66° East  Level Estimated
07:42AM 41.7838 157.0616 66° East  Level Estimated
07:43AM 41.8427 157.2416 66° East  Level Estimated
07:44AM 41.9013 157.4219 66° East  Level Estimated
07:45AM 41.9597 157.6025 66° East  Level Estimated
07:46AM 42.0177 157.7835 67° East  Level Estimated
07:47AM 42.0755 157.9648 67° East  Level Estimated
07:48AM 42.1330 158.1464 67° East  Level Estimated
07:49AM 42.1902 158.3284 67° East  Level Estimated
07:50AM 42.2471 158.5107 67° East  Level Estimated
07:51AM 42.3037 158.6933 67° East  Level Estimated
07:52AM 42.3601 158.8763 67° East  Level Estimated
07:53AM 42.4161 159.0595 67° East  Level Estimated
07:54AM 42.4719 159.2431 68° East  Level Estimated
07:55AM 42.5273 159.4270 68° East  Level Estimated
07:56AM 42.5825 159.6113 68° East  Level Estimated
07:57AM 42.6373 159.7959 68° East  Level Estimated
07:58AM 42.6919 159.9808 68° East  Level Estimated
07:59AM 42.7465 160.1670 68° East  Level Estimated
08:00AM 42.8007 160.3536 68° East  Level Estimated
08:01AM 42.8547 160.5405 68° East  Level Estimated
08:02AM 42.9083 160.7277 69° East  Level Estimated
08:03AM 42.9617 160.9153 69° East  Level Estimated
08:04AM 43.0147 161.1032 69° East  Level Estimated
08:05AM 43.0675 161.2914 69° East  Level Estimated
08:06AM 43.1199 161.4799 69° East  Level Estimated
08:07AM 43.1720 161.6687 69° East  Level Estimated
08:08AM 43.2238 161.8579 69° East  Level Estimated
08:09AM 43.2753 162.0474 69° East  Level Estimated
08:10AM 43.3265 162.2372 70° East  Level Estimated
08:11AM 43.3774 162.4274 70° East  Level Estimated
08:12AM 43.4279 162.6178 70° East  Level Estimated
08:12AM 46.4167 162.3167 60° Northeast 583 671 35,000  Level Anchorage Center
08:13AM 43.4781 162.8086 70° East  Level Estimated
08:14AM 43.5281 162.9996 70° East  Level Estimated
08:15AM 43.5777 163.1911 70° East  Level Estimated
08:16AM 43.6269 163.3828 70° East  Level Estimated
08:17AM 43.6759 163.5748 71° East  Level Estimated
08:17AM 46.8667 163.5000 61° Northeast 577 664 37,000  Level Anchorage Center
08:18AM 46.8986 163.5652 61° Northeast 583 671 35,000 -1,860 Descending FlightAware Transoceanic
08:19AM 46.9776 163.7755 61° Northeast 583 671 35,000  Level FlightAware Transoceanic
08:20AM 47.0562 163.9864 61° Northeast 583 671 35,000  Level FlightAware Transoceanic
08:21AM 47.1344 164.1979 62° Northeast 583 671 35,000  Level FlightAware Transoceanic
08:22AM 47.2122 164.4100 62° Northeast 583 671 35,000  Level FlightAware Transoceanic
08:23AM 47.2897 164.6228 62° Northeast 583 671 35,000 960 Level FlightAware Transoceanic
08:24AM 47.3245 164.7343 62° Northeast 577 664 37,000 960 Climbing FlightAware Transoceanic
08:25AM 47.3995 164.9421 62° Northeast 577 664 37,000  Level FlightAware Transoceanic
08:26AM 47.4742 165.1505 62° Northeast 577 664 37,000  Level FlightAware Transoceanic
08:27AM 47.5484 165.3594 62° Northeast 577 664 37,000  Level FlightAware Transoceanic
08:27AM 47.6000 165.5000 62° Northeast 571 657 37,000  Level Anchorage Center
08:28AM 47.6223 165.5690 62° Northeast 577 664 37,000  Level FlightAware Transoceanic
08:29AM 47.6958 165.7791 63° Northeast 577 664 37,000  Level FlightAware Transoceanic
08:30AM 47.7689 165.9899 63° Northeast 577 664 37,000  Level FlightAware Transoceanic
08:31AM 47.8416 166.2012 63° Northeast 577 664 37,000  Level FlightAware Transoceanic
08:32AM 47.9140 166.4131 63° Northeast 577 664 37,000  Level FlightAware Transoceanic
08:33AM 47.9859 166.6257 63° Northeast 577 664 37,000  Level FlightAware Transoceanic
08:34AM 48.0854 166.9194 64° Northeast 571 657 37,000  Level FlightAware Transoceanic
08:35AM 48.1534 167.1243 64° Northeast 571 657 37,000  Level FlightAware Transoceanic
08:36AM 48.2209 167.3298 64° Northeast 571 657 37,000  Level FlightAware Transoceanic
08:37AM 48.2881 167.5358 64° Northeast 571 657 37,000  Level FlightAware Transoceanic
08:37AM 48.2833 167.5167 64° Northeast 554 638 37,000  Level Anchorage Center
08:38AM 48.3549 167.7424 64° Northeast 571 657 37,000  Level FlightAware Transoceanic
08:39AM 48.4213 167.9495 64° Northeast 571 657 37,000  Level FlightAware Transoceanic
08:40AM 48.4874 168.1572 64° Northeast 571 657 37,000  Level FlightAware Transoceanic
08:41AM 48.5531 168.3653 65° Northeast 571 657 37,000  Level FlightAware Transoceanic
08:42AM 48.6184 168.5741 65° Northeast 571 657 37,000  Level FlightAware Transoceanic
08:43AM 48.6833 168.7833 66° East 554 638 37,000  Level FlightAware Transoceanic
08:43AM 48.6833 168.7833 66° East 554 638 37,000  Level Anchorage Center
08:44AM 48.7434 168.9863 66° East 554 638 37,000  Level FlightAware Transoceanic
08:45AM 48.8032 169.1898 66° East 554 638 37,000  Level FlightAware Transoceanic
08:46AM 48.8625 169.3937 66° East 554 638 37,000 1,020 Level FlightAware Transoceanic
08:46AM 48.8833 169.5000 66° East 548 631 38,800  Climbing Anchorage Center
08:47AM 48.9216 169.5981 66° East 554 638 37,000 -1,440 Descending FlightAware Transoceanic
08:48AM 48.9802 169.8031 67° East 554 638 37,000  Level FlightAware Transoceanic
08:49AM 49.0491 170.0458 67° East 554 638 37,000  Level FlightAware Transoceanic
08:50AM 49.1087 170.2580 67° East 554 638 37,000  Level FlightAware Transoceanic
08:51AM 49.1679 170.4707 67° East 554 638 37,000  Level FlightAware Transoceanic
08:52AM 49.2267 170.6840 67° East 554 638 37,000 900 Level FlightAware Transoceanic
08:53AM 49.2503 170.7986 67° East 548 631 38,800 1,380 Climbing FlightAware Transoceanic
08:53AM 49.2667 170.9500 68° East 560 644 39,000  Climbing Anchorage Center
08:54AM 49.3100 171.0168 67° East 548 631 38,800  Descending FlightAware Transoceanic
08:54AM 49.3167 171.1500 69° East 580 667 39,000  Climbing Anchorage Center
08:55AM 49.3694 171.2357 67° East 548 631 38,800  Descending FlightAware Transoceanic
08:55AM 49.3833 171.3667 65° Northeast 540 621 39,000  Climbing Anchorage Center
08:56AM 49.4283 171.4550 68° East 548 631 38,800  Descending FlightAware Transoceanic
08:56AM 49.4333 171.5500 67° East 540 621 39,000  Climbing Anchorage Center
08:57AM 49.4868 171.6749 68° East 548 631 38,800  Descending FlightAware Transoceanic
08:57AM 49.5000 171.8000 68° East 560 644 39,000  Climbing Anchorage Center
08:58AM 49.5448 171.8953 68° East 548 631 38,800  Descending FlightAware Transoceanic
08:58AM 49.5500 172.0000 69° East 560 644 39,000 120 Climbing Anchorage Center
08:59AM 49.6000 172.2333 72° East 540 621 39,000  Level Anchorage Center
09:00AM 49.6500 172.4000 65° Northeast 540 621 39,000  Level Anchorage Center
09:01AM 49.7167 172.6333 66° East 540 621 39,000  Level Anchorage Center
09:02AM 49.7667 172.8833 73° East 550 633 39,000  Level Anchorage Center
09:03AM 49.8167 173.0667 67° East 540 621 39,000  Level Anchorage Center
09:04AM 49.8833 173.3167 67° East 550 633 39,000  Level Anchorage Center
09:05AM 49.9333 173.5000 67° East 540 621 39,000  Level Anchorage Center
09:06AM 49.9833 173.7333 71° East 540 621 39,000  Level Anchorage Center
09:07AM 50.0333 173.9333 69° East 560 644 39,000  Level Anchorage Center
09:08AM 50.0833 174.1667 71° East 540 621 39,000  Level Anchorage Center
09:09AM 50.1333 174.4000 71° East 530 610 39,000  Level Anchorage Center
09:10AM 50.1833 174.5833 67° East 540 621 39,000  Level Anchorage Center
09:11AM 50.2333 174.8333 73° East 550 633 39,000  Level Anchorage Center
09:12AM 50.2833 175.0167 67° East 540 621 39,000  Level Anchorage Center
09:13AM 50.3333 175.2667 73° East 540 621 39,000  Level Anchorage Center
09:14AM 50.3833 175.4500 67° East 520 598 39,000  Level Anchorage Center
09:15AM 50.4333 175.6833 71° East 540 621 39,000  Level Anchorage Center
09:16AM 50.4667 175.8833 75° East 530 610 39,000  Level Anchorage Center
09:17AM 50.5000 176.1333 78° East 560 644 39,000  Level Anchorage Center
09:18AM 50.5333 176.3833 78° East 550 633 39,000  Level Anchorage Center
09:19AM 50.5500 176.5833 82° East 550 633 39,000  Level Anchorage Center
09:20AM 50.5833 176.8333 78° East 530 610 39,000  Level Anchorage Center
09:21AM 50.5833 177.0333 90° East 530 610 39,000  Level Anchorage Center
09:22AM 50.6167 177.3000 79° East 550 633 39,000  Level Anchorage Center
09:23AM 50.6333 177.5000 82° East 550 633 39,000  Level Anchorage Center
09:24AM 50.6500 177.7500 84° East 530 610 39,000  Level Anchorage Center
09:25AM 50.6667 178.0000 84° East 540 621 39,000  Level Anchorage Center
09:26AM 50.6833 178.2000 82° East 520 598 39,000  Level Anchorage Center
09:27AM 50.7000 178.4667 84° East 530 610 39,000  Level Anchorage Center
09:28AM 50.7167 178.6667 82° East 510 587 39,000  Level Anchorage Center
09:29AM 50.7333 178.9167 84° East 540 621 39,000  Level Anchorage Center
09:30AM 50.7500 179.1167 82° East 530 610 39,000  Level Anchorage Center
09:31AM 50.7667 179.3167 82° East 530 610 39,000  Level Anchorage Center
09:32AM 50.7833 179.5667 84° East 530 610 39,000  Level Anchorage Center
09:33AM 50.8000 179.8167 84° East 530 610 39,000  Level Anchorage Center
09:34AM 50.8000 -179.9667 90° East 530 610 39,000  Level Anchorage Center
09:36AM 50.8213 -179.6195 84° East  Level FlightAware Approximate
09:43AM 50.9061 -178.0134 85° East  Level FlightAware Approximate
09:44AM 50.9164 -177.7835 86° East  Level FlightAware Approximate
09:44AM 50.9500 -177.6667 86° East 515 593 39,000  Level Anchorage Center
09:45AM 50.9262 -177.5535 86° East  Level FlightAware Approximate
09:46AM 50.9356 -177.3234 86° East  Level FlightAware Approximate
09:47AM 50.9446 -177.0932 86° East  Level FlightAware Approximate
09:48AM 50.9531 -176.8629 87° East  Level FlightAware Approximate
09:49AM 50.9611 -176.6326 87° East  Level FlightAware Approximate
09:50AM 50.9953 -176.3162 87° East 515 593 39,000  Level FlightAware Transoceanic
09:51AM 51.0013 -176.0909 88° East 515 593 39,000  Level FlightAware Transoceanic
09:52AM 51.0069 -175.8656 88° East 515 593 39,000  Level FlightAware Transoceanic
09:53AM 51.0121 -175.6401 88° East 515 593 39,000  Level FlightAware Transoceanic
09:53AM 51.0167 -175.4500 88° East 523 602 39,000  Level Anchorage Center
09:54AM 51.0168 -175.4147 88° East 515 593 39,000  Level FlightAware Transoceanic
09:55AM 51.0211 -175.1891 88° East 515 593 39,000  Level FlightAware Transoceanic
09:56AM 51.0250 -174.9636 89° East 515 593 39,000  Level FlightAware Transoceanic
09:57AM 51.0284 -174.7380 89° East 515 593 39,000  Level FlightAware Transoceanic
09:58AM 51.0314 -174.5124 89° East 515 593 39,000  Level FlightAware Transoceanic
09:59AM 51.0339 -174.2867 89° East 515 593 39,000  Level FlightAware Transoceanic
10:00AM 51.0368 -174.0283 89° East 523 602 39,000  Level FlightAware Transoceanic
10:01AM 51.0384 -173.7913 89° East 523 602 39,000  Level FlightAware Transoceanic
10:02AM 51.0396 -173.5542 90° East 523 602 39,000  Level FlightAware Transoceanic
10:03AM 51.0404 -173.3172 90° East 523 602 39,000 1,320 Level FlightAware Transoceanic
10:03AM 51.0333 -173.2167 90° East 506 582 41,000  Climbing Anchorage Center
10:04AM 51.0406 -173.0801 90° East 523 602 39,000 -1,320 Descending FlightAware Transoceanic
10:05AM 51.0403 -172.8430 90° East 523 602 39,000  Level FlightAware Transoceanic
10:06AM 51.0396 -172.6060 90° East 523 602 39,000  Level FlightAware Transoceanic
10:07AM 51.0384 -172.3689 91° East 523 602 39,000  Level FlightAware Transoceanic
10:08AM 51.0367 -172.1319 91° East 523 602 39,000 960 Level FlightAware Transoceanic
10:09AM 51.0306 -171.9295 91° East 506 582 41,000 960 Climbing FlightAware Transoceanic
10:10AM 51.0288 -171.7150 91° East 506 582 41,000  Level FlightAware Transoceanic
10:11AM 51.0266 -171.5005 91° East 506 582 41,000  Level FlightAware Transoceanic
10:12AM 51.0239 -171.2861 91° East 506 582 41,000  Level FlightAware Transoceanic
10:13AM 51.0209 -171.0716 91° East 506 582 41,000  Level FlightAware Transoceanic
10:14AM 51.0175 -170.8572 92° East 506 582 41,000  Level FlightAware Transoceanic
10:15AM 51.0137 -170.6429 92° East 506 582 41,000  Level FlightAware Transoceanic
10:16AM 51.0095 -170.4285 92° East 506 582 41,000  Level FlightAware Transoceanic
10:17AM 51.0050 -170.2142 92° East 506 582 41,000  Level FlightAware Transoceanic
10:18AM 51.0000 -170.0000 103° East 506 582 41,000  Level FlightAware Transoceanic
10:18AM 51.0000 -170.0000 103° East 531 611 41,000  Level Oakland Oceanic (ODAPS)
10:19AM 50.9659 -169.7742 104° East 506 582 41,000  Level FlightAware Transoceanic
10:20AM 50.9313 -169.5487 104° East 506 582 41,000  Level FlightAware Transoceanic
10:21AM 50.8964 -169.3235 104° East 506 582 41,000  Level FlightAware Transoceanic
10:22AM 50.8609 -169.0987 104° East 506 582 41,000  Level FlightAware Transoceanic
10:23AM 50.8251 -168.8742 104° East 506 582 41,000  Level FlightAware Transoceanic
10:24AM 50.7888 -168.6501 104° East 531 611 41,000  Level FlightAware Transoceanic
10:24AM 50.7833 -168.6167 104° East 532 612 41,000  Level Oakland Oceanic (ODAPS)
10:25AM 50.7521 -168.4263 105° East 531 611 41,000  Level FlightAware Transoceanic
10:26AM 50.7150 -168.2029 105° East 531 611 41,000  Level FlightAware Transoceanic
10:27AM 50.6774 -167.9798 105° East 531 611 41,000  Level FlightAware Transoceanic
10:28AM 50.6394 -167.7571 105° East 531 611 41,000  Level FlightAware Transoceanic
10:29AM 50.6010 -167.5347 105° East 531 611 41,000  Level FlightAware Transoceanic
10:30AM 50.5572 -167.2846 106° East 532 612 41,000  Level FlightAware Transoceanic
10:31AM 50.5180 -167.0639 106° East 532 612 41,000  Level FlightAware Transoceanic
10:32AM 50.4785 -166.8435 106° East 532 612 41,000  Level FlightAware Transoceanic
10:33AM 50.4385 -166.6235 106° East 532 612 41,000  Level FlightAware Transoceanic
10:34AM 50.3981 -166.4038 106° East 532 612 41,000  Level FlightAware Transoceanic
10:35AM 50.3572 -166.1846 106° East 532 612 41,000  Level FlightAware Transoceanic
10:36AM 50.3160 -165.9657 107° East 532 612 41,000  Level FlightAware Transoceanic
10:37AM 50.2744 -165.7472 107° East 532 612 41,000  Level FlightAware Transoceanic
10:38AM 50.2323 -165.5291 107° East 532 612 41,000  Level FlightAware Transoceanic
10:38AM 50.2333 -165.5333 107° East 533 613 41,000  Level Oakland Oceanic (ODAPS)
10:39AM 50.1899 -165.3114 107° East 532 612 41,000  Level FlightAware Transoceanic
10:40AM 50.1470 -165.0940 107° East 532 612 41,000  Level FlightAware Transoceanic
10:41AM 50.1037 -164.8771 107° East 532 612 41,000  Level FlightAware Transoceanic
10:42AM 50.0601 -164.6605 108° East 532 612 41,000  Level FlightAware Transoceanic
10:43AM 50.0160 -164.4443 108° East 532 612 41,000  Level FlightAware Transoceanic
10:44AM 49.9723 -164.2318 108° East 533 613 41,000  Level FlightAware Transoceanic
10:45AM 49.9274 -164.0163 108° East 533 613 41,000  Level FlightAware Transoceanic
10:46AM 49.8821 -163.8011 108° East 533 613 41,000  Level FlightAware Transoceanic
10:47AM 49.8364 -163.5864 108° East 533 613 41,000  Level FlightAware Transoceanic
10:48AM 49.7903 -163.3721 109° East 533 613 41,000  Level FlightAware Transoceanic
10:49AM 49.7438 -163.1582 109° East 533 613 41,000  Level FlightAware Transoceanic
10:50AM 49.6969 -162.9447 109° East 533 613 41,000  Level FlightAware Transoceanic
10:51AM 49.6496 -162.7316 109° East 533 613 41,000  Level FlightAware Transoceanic
10:51AM 49.6000 -162.5333 109° East 529 609 41,000  Level Oakland Oceanic (ODAPS)
10:52AM 49.6020 -162.5190 109° East 533 613 41,000  Level FlightAware Transoceanic
10:53AM 49.5539 -162.3067 109° East 533 613 41,000  Level FlightAware Transoceanic
10:54AM 49.5055 -162.0949 109° East 533 613 41,000  Level FlightAware Transoceanic
10:55AM 49.4566 -161.8835 110° East 533 613 41,000  Level FlightAware Transoceanic
10:56AM 49.4074 -161.6725 110° East 533 613 41,000  Level FlightAware Transoceanic
10:57AM 49.3578 -161.4619 110° East 533 613 41,000  Level FlightAware Transoceanic
10:58AM 49.3069 -161.2590 110° East 529 609 41,000  Level FlightAware Transoceanic
10:59AM 49.2567 -161.0480 110° East 529 609 41,000  Level FlightAware Transoceanic
11:00AM 49.2061 -160.8376 110° East 529 609 41,000  Level FlightAware Transoceanic
11:01AM 49.1552 -160.6275 110° East 529 609 41,000  Level FlightAware Transoceanic
11:02AM 49.1038 -160.4179 111° Southeast 529 609 41,000  Level FlightAware Transoceanic
11:03AM 49.0521 -160.2087 111° Southeast 529 609 41,000  Level FlightAware Transoceanic
11:03AM 49.0000 -160.0000 95° East 525 604 41,000  Level Oakland Oceanic (ODAPS)
11:04AM 49.0000 -160.0000 95° East 529 609 41,000  Level FlightAware Transoceanic
11:05AM 48.9876 -159.7789 95° East 529 609 41,000  Level FlightAware Transoceanic
11:05AM 48.9833 -159.5833 95° East 527 606 41,000  Level Oakland Oceanic (ODAPS)
11:06AM 48.9747 -159.5580 95° East 529 609 41,000  Level FlightAware Transoceanic
11:07AM 48.9615 -159.3372 95° East 529 609 41,000  Level FlightAware Transoceanic
11:08AM 48.9478 -159.1165 95° East 529 609 41,000  Level FlightAware Transoceanic
11:09AM 48.9337 -158.8959 96° East 529 609 41,000  Level FlightAware Transoceanic
11:10AM 48.9192 -158.6755 96° East 525 604 41,000  Level FlightAware Transoceanic
11:11AM 48.9042 -158.4552 96° East 525 604 41,000  Level FlightAware Transoceanic
11:12AM 48.8965 -158.2566 96° East 527 606 41,000  Level FlightAware Transoceanic
11:13AM 48.8806 -158.0359 96° East 527 606 41,000  Level FlightAware Transoceanic
11:14AM 48.8642 -157.8154 97° East 527 606 41,000  Level FlightAware Transoceanic
11:15AM 48.8474 -157.5950 97° East 527 606 41,000  Level FlightAware Transoceanic
11:16AM 48.8302 -157.3748 97° East 527 606 41,000  Level FlightAware Transoceanic
11:17AM 48.8126 -157.1548 97° East 527 606 41,000  Level FlightAware Transoceanic
11:18AM 48.7945 -156.9348 97° East 527 606 41,000  Level FlightAware Transoceanic
11:19AM 48.7761 -156.7151 97° East 527 606 41,000  Level FlightAware Transoceanic
11:19AM 48.7500 -156.5667 97° East 534 615 41,000  Level Oakland Oceanic (ODAPS)
11:20AM 48.7572 -156.4955 98° East 527 606 41,000  Level FlightAware Transoceanic
11:21AM 48.7379 -156.2761 98° East 527 606 41,000  Level FlightAware Transoceanic
11:22AM 48.7182 -156.0568 98° East 527 606 41,000  Level FlightAware Transoceanic
11:23AM 48.6981 -155.8378 98° East 527 606 41,000  Level FlightAware Transoceanic
11:24AM 48.6775 -155.6189 98° East 527 606 41,000  Level FlightAware Transoceanic
11:25AM 48.6566 -155.4001 98° East 527 606 41,000  Level FlightAware Transoceanic
11:26AM 48.6257 -155.1929 98° East 534 615 41,000  Level FlightAware Transoceanic
11:27AM 48.6034 -154.9646 98° East 534 615 41,000  Level FlightAware Transoceanic
11:28AM 48.5806 -154.7365 99° East 534 615 41,000  Level FlightAware Transoceanic
11:29AM 48.5574 -154.5086 99° East 534 615 41,000  Level FlightAware Transoceanic
11:30AM 48.5337 -154.2809 99° East 534 615 41,000  Level FlightAware Transoceanic
11:31AM 48.5096 -154.0535 99° East 534 615 41,000  Level FlightAware Transoceanic
11:32AM 48.4851 -153.8262 99° East 534 615 41,000  Level FlightAware Transoceanic
11:33AM 48.4601 -153.5992 100° East 534 615 41,000  Level FlightAware Transoceanic
11:33AM 48.4500 -153.5333 100° East 533 613 41,000  Level Oakland Oceanic (ODAPS)
11:34AM 48.4346 -153.3724 100° East 534 615 41,000  Level FlightAware Transoceanic
11:35AM 48.4087 -153.1459 100° East 534 615 41,000  Level FlightAware Transoceanic
11:36AM 48.3824 -152.9196 100° East 534 615 41,000  Level FlightAware Transoceanic
11:37AM 48.3556 -152.6935 100° East 534 615 41,000  Level FlightAware Transoceanic
11:38AM 48.3284 -152.4676 100° East 534 615 41,000  Level FlightAware Transoceanic
11:39AM 48.3036 -152.2793 100° East 533 613 41,000  Level FlightAware Transoceanic
11:40AM 48.2778 -152.0710 101° East 533 613 41,000  Level FlightAware Transoceanic
11:41AM 48.2517 -151.8629 101° East 533 613 41,000  Level FlightAware Transoceanic
11:42AM 48.2253 -151.6550 101° East 533 613 41,000  Level FlightAware Transoceanic
11:43AM 48.1984 -151.4473 101° East 533 613 41,000  Level FlightAware Transoceanic
11:44AM 48.1712 -151.2399 101° East 533 613 41,000  Level FlightAware Transoceanic
11:45AM 48.1436 -151.0327 101° East 533 613 41,000  Level FlightAware Transoceanic
11:46AM 48.1156 -150.8257 102° East 533 613 41,000  Level FlightAware Transoceanic
11:47AM 48.0872 -150.6189 102° East 533 613 41,000  Level FlightAware Transoceanic
11:47AM 48.0667 -150.4833 101° East 544 626 41,000  Level Oakland Oceanic (ODAPS)
11:48AM 48.0585 -150.4124 102° East 533 613 41,000  Level FlightAware Transoceanic
11:49AM 48.0294 -150.2061 102° East 533 613 41,000  Level FlightAware Transoceanic
11:49AM 48.0000 -150.0000 103° East 548 631 41,000  Level Oakland Oceanic (ODAPS)
11:50AM 48.0000 -150.0000 103° East 533 613 41,000  Level FlightAware Transoceanic
11:51AM 47.9667 -149.7798 103° East 533 613 41,000  Level FlightAware Transoceanic
11:52AM 47.9330 -149.5599 103° East 533 613 41,000  Level FlightAware Transoceanic
11:53AM 47.8673 -149.1393 103° East 544 626 41,000  Level FlightAware Transoceanic
11:54AM 47.8331 -148.9248 103° East 544 626 41,000  Level FlightAware Transoceanic
11:55AM 47.7940 -148.6832 104° East 548 631 41,000  Level FlightAware Transoceanic
11:56AM 47.7583 -148.4648 104° East 548 631 41,000  Level FlightAware Transoceanic
11:57AM 47.7221 -148.2467 104° East 548 631 41,000  Level FlightAware Transoceanic
11:58AM 47.6855 -148.0288 104° East 548 631 41,000  Level FlightAware Transoceanic
11:59AM 47.6484 -147.8113 104° East 548 631 41,000  Level FlightAware Transoceanic
12:00PM 47.6110 -147.5941 104° East 548 631 41,000  Level FlightAware Transoceanic
12:01PM 47.5732 -147.3772 105° East 548 631 41,000  Level FlightAware Transoceanic
12:01PM 47.5833 -147.4667 104° East 551 634 41,000  Level Oakland Oceanic (ODAPS)
12:02PM 47.5349 -147.1606 105° East 548 631 41,000  Level FlightAware Transoceanic
12:03PM 47.4962 -146.9444 105° East 548 631 41,000  Level FlightAware Transoceanic
12:04PM 47.4572 -146.7284 105° East 548 631 41,000  Level FlightAware Transoceanic
12:05PM 47.4177 -146.5128 105° East 548 631 41,000  Level FlightAware Transoceanic
12:06PM 47.3778 -146.2975 105° East 548 631 41,000  Level FlightAware Transoceanic
12:07PM 47.3468 -146.1561 105° East 551 634 41,000  Level FlightAware Transoceanic
12:08PM 47.3060 -145.9388 106° East 551 634 41,000  Level FlightAware Transoceanic
12:09PM 47.2647 -145.7219 106° East 551 634 41,000  Level FlightAware Transoceanic
12:10PM 47.2230 -145.5053 106° East 551 634 41,000  Level FlightAware Transoceanic
12:11PM 47.1809 -145.2891 106° East 551 634 41,000  Level FlightAware Transoceanic
12:12PM 47.1384 -145.0732 106° East 551 634 41,000  Level FlightAware Transoceanic
12:13PM 47.0955 -144.8576 106° East 551 634 41,000  Level FlightAware Transoceanic
12:14PM 47.0522 -144.6424 107° East 551 634 41,000  Level FlightAware Transoceanic
12:15PM 47.0085 -144.4276 107° East 551 634 41,000  Level FlightAware Transoceanic
12:15PM 47.0167 -144.4333 107° East 551 634 41,000  Level Oakland Oceanic (ODAPS)
12:16PM 46.9644 -144.2130 107° East 551 634 41,000  Level FlightAware Transoceanic
12:17PM 46.9199 -143.9989 107° East 551 634 41,000  Level FlightAware Transoceanic
12:18PM 46.8750 -143.7851 107° East 551 634 41,000  Level FlightAware Transoceanic
12:19PM 46.8297 -143.5717 107° East 551 634 41,000  Level FlightAware Transoceanic
12:20PM 46.7840 -143.3586 107° East 551 634 41,000  Level FlightAware Transoceanic
12:21PM 46.7438 -143.1499 108° East 551 634 41,000  Level FlightAware Transoceanic
12:22PM 46.6969 -142.9372 108° East 551 634 41,000  Level FlightAware Transoceanic
12:23PM 46.6496 -142.7249 108° East 551 634 41,000  Level FlightAware Transoceanic
12:24PM 46.6020 -142.5131 108° East 551 634 41,000  Level FlightAware Transoceanic
12:25PM 46.5539 -142.3015 108° East 551 634 41,000  Level FlightAware Transoceanic
12:26PM 46.5055 -142.0904 109° East 551 634 41,000  Level FlightAware Transoceanic
12:27PM 46.4566 -141.8796 109° East 551 634 41,000  Level FlightAware Transoceanic
12:28PM 46.4074 -141.6693 109° East 551 634 41,000  Level FlightAware Transoceanic
12:29PM 46.3578 -141.4592 109° East 551 634 41,000  Level FlightAware Transoceanic
12:29PM 46.3833 -141.5833 109° East 540 621 41,000  Level Oakland Oceanic (ODAPS)
12:30PM 46.3079 -141.2496 109° East 551 634 41,000  Level FlightAware Transoceanic
12:31PM 46.2575 -141.0404 109° East 551 634 41,000  Level FlightAware Transoceanic
12:32PM 46.2068 -140.8315 109° East 551 634 41,000  Level FlightAware Transoceanic
12:33PM 46.1556 -140.6231 110° East 551 634 41,000  Level FlightAware Transoceanic
12:34PM 46.1041 -140.4150 110° East 551 634 41,000  Level FlightAware Transoceanic
12:35PM 46.0979 -140.3938 110° East 540 621 41,000  Level FlightAware Transoceanic
12:36PM 46.0491 -140.1967 110° East 540 621 41,000  Level FlightAware Transoceanic
12:36PM 46.0000 -140.0000 116° Southeast 532 612 41,000  Level Oakland Oceanic (ODAPS)
12:37PM 46.0000 -140.0000 116° Southeast 540 621 41,000  Level FlightAware Transoceanic
12:38PM 45.9366 -139.8095 116° Southeast 540 621 41,000  Level FlightAware Transoceanic
12:39PM 45.8728 -139.6194 116° Southeast 540 621 41,000  Level FlightAware Transoceanic
12:40PM 45.8087 -139.4298 116° Southeast 540 621 41,000  Level FlightAware Transoceanic
12:41PM 45.7444 -139.2406 116° Southeast 540 621 41,000  Level FlightAware Transoceanic
12:42PM 45.6797 -139.0518 116° Southeast 540 621 41,000  Level FlightAware Transoceanic
12:42PM 45.6167 -138.8500 116° Southeast 525 604 41,000  Level Oakland Oceanic (ODAPS)
12:43PM 45.6076 -138.8430 116° Southeast 532 612 41,000  Level FlightAware Transoceanic
12:44PM 45.5410 -138.6518 116° Southeast 532 612 41,000  Level FlightAware Transoceanic
12:45PM 45.4742 -138.4610 117° Southeast 532 612 41,000  Level FlightAware Transoceanic
12:46PM 45.4070 -138.2706 117° Southeast 532 612 41,000  Level FlightAware Transoceanic
12:47PM 45.3395 -138.0807 117° Southeast 532 612 41,000  Level FlightAware Transoceanic
12:48PM 45.2717 -137.8913 117° Southeast 532 612 41,000  Level FlightAware Transoceanic
12:49PM 45.2199 -137.7309 117° Southeast 525 604 41,000  Level FlightAware Transoceanic
12:50PM 45.1527 -137.5460 117° Southeast 525 604 41,000  Level FlightAware Transoceanic
12:51PM 45.0852 -137.3614 117° Southeast 525 604 41,000  Level FlightAware Transoceanic
12:52PM 45.0174 -137.1773 118° Southeast 525 604 41,000  Level FlightAware Transoceanic
12:53PM 44.9493 -136.9936 118° Southeast 525 604 41,000  Level FlightAware Transoceanic
12:54PM 44.8810 -136.8104 118° Southeast 525 604 41,000  Level FlightAware Transoceanic
12:55PM 44.8123 -136.6276 118° Southeast 525 604 41,000  Level FlightAware Transoceanic
12:56PM 44.7434 -136.4452 118° Southeast 525 604 41,000  Level FlightAware Transoceanic
12:56PM 44.6833 -136.3167 118° Southeast 524 603 41,000  Level Oakland Oceanic (ODAPS)
12:57PM 44.6741 -136.2633 118° Southeast 525 604 41,000  Level FlightAware Transoceanic
12:58PM 44.6046 -136.0818 118° Southeast 525 604 41,000  Level FlightAware Transoceanic
12:59PM 44.5348 -135.9008 118° Southeast 525 604 41,000  Level FlightAware Transoceanic
01:00PM 44.4646 -135.7201 119° Southeast 525 604 41,000  Level FlightAware Transoceanic
01:01PM 44.3943 -135.5399 119° Southeast 525 604 41,000  Level FlightAware Transoceanic
01:02PM 44.3236 -135.3602 119° Southeast 525 604 41,000  Level FlightAware Transoceanic
01:03PM 44.2607 -135.2249 119° Southeast 524 603 41,000  Level FlightAware Transoceanic
01:04PM 44.1893 -135.0444 119° Southeast 524 603 41,000  Level FlightAware Transoceanic
01:05PM 44.1176 -134.8644 119° Southeast 524 603 41,000  Level FlightAware Transoceanic
01:06PM 44.0456 -134.6849 119° Southeast 524 603 41,000  Level FlightAware Transoceanic
01:07PM 43.9733 -134.5058 119° Southeast 524 603 41,000  Level FlightAware Transoceanic
01:08PM 43.9007 -134.3271 119° Southeast 524 603 41,000  Level FlightAware Transoceanic
01:09PM 43.8279 -134.1488 120° Southeast 524 603 41,000  Level FlightAware Transoceanic
01:10PM 43.7548 -133.9710 120° Southeast 524 603 41,000  Level FlightAware Transoceanic
01:10PM 43.7167 -133.8833 120° Southeast 523 602 41,000  Level Oakland Oceanic (ODAPS)
01:11PM 43.6814 -133.7936 120° Southeast 524 603 41,000  Level FlightAware Transoceanic
01:12PM 43.6077 -133.6167 120° Southeast 524 603 41,000  Level FlightAware Transoceanic
01:13PM 43.5338 -133.4402 120° Southeast 524 603 41,000  Level FlightAware Transoceanic
01:14PM 43.4596 -133.2641 120° Southeast 524 603 41,000  Level FlightAware Transoceanic
01:15PM 43.3851 -133.0885 120° Southeast 524 603 41,000  Level FlightAware Transoceanic
01:16PM 43.2816 -132.8494 120° Southeast 523 602 41,000  Level FlightAware Transoceanic
01:17PM 43.2082 -132.6785 121° Southeast 523 602 41,000  Level FlightAware Transoceanic
01:18PM 43.1345 -132.5081 121° Southeast 523 602 41,000  Level FlightAware Transoceanic
01:19PM 43.0606 -132.3380 121° Southeast 523 602 41,000  Level FlightAware Transoceanic
01:20PM 42.9865 -132.1684 121° Southeast 523 602 41,000  Level FlightAware Transoceanic
01:21PM 42.9120 -131.9991 121° Southeast 523 602 41,000  Level FlightAware Transoceanic
01:22PM 42.8374 -131.8303 121° Southeast 523 602 41,000  Level FlightAware Transoceanic
01:23PM 42.7625 -131.6619 121° Southeast 523 602 41,000  Level FlightAware Transoceanic
01:24PM 42.6873 -131.4939 121° Southeast 523 602 41,000  Level FlightAware Transoceanic
01:24PM 42.7000 -131.5333 121° Southeast 513 590 41,000  Level Oakland Oceanic (ODAPS)
01:25PM 42.6119 -131.3263 122° Southeast 523 602 41,000  Level FlightAware Transoceanic
01:26PM 42.5363 -131.1591 122° Southeast 523 602 41,000  Level FlightAware Transoceanic
01:27PM 42.4604 -130.9923 122° Southeast 523 602 41,000  Level FlightAware Transoceanic
01:28PM 42.3842 -130.8259 122° Southeast 523 602 41,000  Level FlightAware Transoceanic
01:29PM 42.3079 -130.6599 122° Southeast 523 602 41,000  Level FlightAware Transoceanic
01:30PM 42.2825 -130.6092 122° Southeast 513 590 41,000  Level FlightAware Transoceanic
01:31PM 42.2121 -130.4564 122° Southeast 513 590 41,000  Level FlightAware Transoceanic
01:32PM 42.1416 -130.3039 122° Southeast 513 590 41,000  Level FlightAware Transoceanic
01:33PM 42.0709 -130.1518 122° Southeast 513 590 41,000  Level FlightAware Transoceanic
01:34PM 42.0000 -130.0000 120° Southeast 513 590 41,000  Level FlightAware Transoceanic
01:34PM 42.0000 -130.0000 120° Southeast 504 580 41,000  Level Oakland Oceanic (ODAPS)
01:35PM 41.9261 -129.8300 120° Southeast 513 590 41,000  Level FlightAware Transoceanic
01:36PM 41.8520 -129.6604 120° Southeast 513 590 41,000  Level FlightAware Transoceanic
01:37PM 41.7777 -129.4912 121° Southeast 513 590 41,000  Level FlightAware Transoceanic
01:38PM 41.7031 -129.3224 121° Southeast 513 590 41,000  Level FlightAware Transoceanic
01:38PM 41.7000 -129.3000 121° Southeast 508 585 41,000  Level Oakland Oceanic (ODAPS)
01:39PM 41.6282 -129.1540 121° Southeast 513 590 41,000  Level FlightAware Transoceanic
01:40PM 41.5769 -129.0390 121° Southeast 504 580 41,000  Level FlightAware Transoceanic
01:41PM 41.5056 -128.8801 121° Southeast 504 580 41,000  Level FlightAware Transoceanic
01:42PM 41.4341 -128.7215 121° Southeast 504 580 41,000  Level FlightAware Transoceanic
01:43PM 41.3624 -128.5633 121° Southeast 504 580 41,000  Level FlightAware Transoceanic
01:44PM 41.2788 -128.3710 121° Southeast 508 585 41,000  Level FlightAware Transoceanic
01:45PM 41.2079 -128.2173 122° Southeast 508 585 41,000  Level FlightAware Transoceanic
01:46PM 41.1368 -128.0640 122° Southeast 508 585 41,000  Level FlightAware Transoceanic
01:47PM 41.0655 -127.9110 122° Southeast 508 585 41,000  Level FlightAware Transoceanic
01:48PM 40.9939 -127.7584 122° Southeast 508 585 41,000  Level FlightAware Transoceanic
01:49PM 40.9222 -127.6060 122° Southeast 508 585 41,000 -60 Level FlightAware Transoceanic
01:49PM 40.8453 -127.4961 118° Southeast 514 592 40,900  Descending Oakland Center
01:50PM 40.8503 -127.4540 122° Southeast 508 585 41,000 120 Climbing FlightAware Transoceanic
01:50PM 40.8500 -127.4500 122° Southeast 524 603 41,000  Level Oakland Oceanic (ODAPS)
01:51PM 40.7782 -127.3024 122° Southeast 508 585 41,000  Level FlightAware Transoceanic
01:51PM 40.6922 -127.1322 122° Southeast 519 597 41,000  Level Oakland Center
01:52PM 40.7058 -127.1510 122° Southeast 508 585 41,000 -120 Level FlightAware Transoceanic
01:52PM 40.6142 -126.9739 123° Southeast 516 594 40,900  Descending Oakland Center
01:53PM 40.6333 -127.0000 118° Southeast 508 585 41,000  Climbing FlightAware Transoceanic
01:53PM 40.5211 -126.8297 130° Southeast 515 593 40,900  Descending Oakland Center
01:54PM 40.5640 -126.8266 118° Southeast 508 585 41,000  Climbing FlightAware Transoceanic
01:59PM 39.9750 -125.9890 130° Southeast 41,000  Level FlightAware
02:00PM 39.9270 -125.9160 131° Southeast 520 598 41,000  Level FlightAware
02:00PM 39.8530 -125.8030 130° Southeast 519 597 41,000  Level FlightAware
02:01PM 39.7950 -125.7150 131° Southeast 518 596 41,000  Level FlightAware
02:02PM 39.7490 -125.6450 131° Southeast 517 595 41,000  Level FlightAware
02:02PM 39.6970 -125.5660 131° Southeast 516 594 41,000  Level FlightAware
02:03PM 39.6420 -125.4840 131° Southeast 515 593 41,000  Level FlightAware
02:03PM 39.5770 -125.3850 130° Southeast 518 596 41,000  Level FlightAware
02:04PM 39.5150 -125.2930 131° Southeast 519 597 41,000  Level FlightAware
02:05PM 39.4600 -125.2100 131° Southeast 521 600 41,000  Level FlightAware
02:05PM 39.3960 -125.1160 131° Southeast 518 596 41,000  Level FlightAware
02:06PM 39.3410 -125.0340 131° Southeast 517 595 41,000  Level FlightAware
02:07PM 39.2770 -124.9390 131° Southeast 518 596 41,000  Level FlightAware
02:07PM 39.2160 -124.8490 131° Southeast 518 596 41,000  Level FlightAware
02:08PM 39.1650 -124.7730 131° Southeast 518 596 41,000  Level FlightAware
02:08PM 39.1020 -124.6810 131° Southeast 517 595 41,000  Level FlightAware
02:09PM 39.0490 -124.6030 131° Southeast 518 596 41,000  Level FlightAware
02:10PM 38.9970 -124.5270 131° Southeast 518 596 41,000  Level FlightAware
02:10PM 38.9360 -124.4380 131° Southeast 519 597 41,000  Level FlightAware
02:11PM 38.8940 -124.3780 132° Southeast 519 597 41,000  Level FlightAware
02:11PM 38.8250 -124.2770 131° Southeast 517 595 41,000  Level FlightAware
02:12PM 38.7670 -124.1930 132° Southeast 517 595 41,000  Level FlightAware
02:12PM 38.7150 -124.1180 132° Southeast 519 597 41,000  Level FlightAware
02:13PM 38.6550 -124.0320 132° Southeast 521 600 41,000  Level FlightAware
02:14PM 38.6050 -123.9610 132° Southeast 522 601 41,000  Level FlightAware
02:14PM 38.5490 -123.8800 131° Southeast 522 601 41,000  Level FlightAware
02:15PM 38.4880 -123.7940 132° Southeast 524 603 41,000  Level FlightAware
02:15PM 38.4350 -123.7180 132° Southeast 525 604 41,000  Level FlightAware
02:16PM 38.3740 -123.6320 132° Southeast 525 604 41,000  Level FlightAware
02:17PM 38.3230 -123.5580 131° Southeast 526 605 41,000  Level FlightAware
02:17PM 38.2720 -123.4870 132° Southeast 525 604 41,000  Level FlightAware
02:18PM 38.2080 -123.3960 132° Southeast 525 604 41,000  Level FlightAware
02:18PM 38.1540 -123.3210 132° Southeast 526 605 41,000  Level FlightAware
02:19PM 38.0850 -123.2240 132° Southeast 526 605 41,000  Level FlightAware
02:20PM 38.0200 -123.1330 132° Southeast 528 608 41,000  Level FlightAware
02:20PM 37.9680 -123.0600 132° Southeast 528 608 41,000  Level FlightAware
02:21PM 37.9090 -122.9780 132° Southeast 528 608 41,000  Level FlightAware
02:21PM 37.8480 -122.8940 133° Southeast 530 610 41,000  Level FlightAware
02:22PM 37.7950 -122.8210 133° Southeast 533 613 41,000  Level FlightAware
02:23PM 37.7340 -122.7360 132° Southeast 534 615 41,000  Level FlightAware
02:23PM 37.6750 -122.6550 133° Southeast 535 616 41,000  Level FlightAware
02:24PM 37.6210 -122.5800 132° Southeast 535 616 41,000  Level FlightAware
02:24PM 37.5620 -122.4990 133° Southeast 537 618 41,000  Level FlightAware
02:25PM 37.4990 -122.4130 133° Southeast 537 618 41,000  Level FlightAware
02:25PM 37.4390 -122.3320 133° Southeast 535 616 41,000  Level FlightAware
02:26PM 37.4215 -122.3080 133° Southeast 535 616 41,000  Level FlightAware ADS-B
02:26PM 37.3594 -122.2230 133° Southeast 532 612 41,000  Level FlightAware ADS-B
02:27PM 37.3057 -122.1510 133° Southeast 531 611 41,000  Level FlightAware ADS-B
02:27PM 37.2558 -122.0830 133° Southeast 525 604 41,000  Level FlightAware ADS-B
02:28PM 37.2080 -122.0190 133° Southeast 513 590 41,000  Level FlightAware
02:28PM 37.1909 -121.9950 132° Southeast 512 589 41,000  Level FlightAware ADS-B
02:28PM 37.1406 -121.9280 133° Southeast 507 583 41,000  Level FlightAware ADS-B
02:29PM 37.0915 -121.8620 133° Southeast 505 581 41,000  Level FlightAware ADS-B
02:29PM 37.0438 -121.7980 133° Southeast 505 581 41,000  Level FlightAware ADS-B
02:30PM 36.9925 -121.7290 133° Southeast 505 581 41,000  Level FlightAware ADS-B
02:31PM 36.9436 -121.6640 133° Southeast 506 582 41,000  Level FlightAware ADS-B
02:31PM 36.8957 -121.6000 133° Southeast 507 583 41,000  Level FlightAware ADS-B
02:32PM 36.8161 -121.4940 133° Southeast 507 583 41,000  Level FlightAware ADS-B
02:32PM 36.7618 -121.4220 133° Southeast 507 583 41,000  Level FlightAware ADS-B
02:33PM 36.7116 -121.3560 133° Southeast 508 585 41,000  Level FlightAware ADS-B
02:34PM 36.6575 -121.2840 133° Southeast 508 585 41,000  Level FlightAware ADS-B
02:34PM 36.5930 -121.1990 133° Southeast 505 581 41,000  Level FlightAware
02:35PM 36.5260 -121.1110 133° Southeast 506 582 41,000  Level FlightAware
02:35PM 36.4670 -121.0350 134° Southeast 507 583 41,000  Level FlightAware
02:36PM 36.4150 -120.9670 134° Southeast 505 581 41,000  Level FlightAware
02:37PM 36.3560 -120.8900 134° Southeast 505 581 41,000  Level FlightAware
02:37PM 36.3130 -120.8340 134° Southeast 505 581 41,000  Level FlightAware
02:38PM 36.2560 -120.7600 134° Southeast 505 581 41,000  Level FlightAware
02:38PM 36.1990 -120.6850 133° Southeast 505 581 41,000  Level FlightAware
02:39PM 36.1370 -120.6050 134° Southeast 504 580 41,000  Level FlightAware
02:40PM 36.0780 -120.5300 134° Southeast 504 580 41,000  Level FlightAware
02:40PM 36.0280 -120.4640 133° Southeast 503 579 41,000  Level FlightAware
02:41PM 35.9700 -120.3910 134° Southeast 502 578 41,000  Level FlightAware
02:41PM 35.9180 -120.3240 134° Southeast 500 575 41,000  Level FlightAware
02:42PM 35.8660 -120.2570 134° Southeast 499 574 41,000  Level FlightAware
02:42PM 35.8020 -120.1760 134° Southeast 497 572 41,000  Level FlightAware
02:43PM 35.7440 -120.1020 134° Southeast 498 573 41,000  Level FlightAware
02:44PM 35.6920 -120.0360 134° Southeast 499 574 41,000  Level FlightAware
02:44PM 35.6280 -119.9630 137° Southeast 495 570 41,000  Level FlightAware
02:45PM 35.5670 -119.9090 144° Southeast 493 567 41,000 -600 Level FlightAware
02:45PM 35.4960 -119.8480 145° Southeast 503 579 40,300 -1,560 Descending FlightAware
02:46PM 35.4360 -119.7960 145° Southeast 513 590 39,200 -1,260 Descending FlightAware
02:46PM 35.3740 -119.7420 145° Southeast 515 593 38,900 -2,460 Descending FlightAware
02:47PM 35.2900 -119.6710 145° Southeast 517 595 36,100 -3,720 Descending FlightAware
02:48PM 35.2170 -119.6080 145° Southeast 530 610 34,300 -3,120 Descending FlightAware
02:48PM 35.1470 -119.5490 145° Southeast 534 615 32,500 -3,420 Descending FlightAware
02:49PM 35.0750 -119.4870 145° Southeast 531 611 30,400 -3,540 Descending FlightAware
02:49PM 35.0060 -119.4280 145° Southeast 534 615 28,400 -3,120 Descending FlightAware
02:50PM 34.9220 -119.3570 145° Southeast 534 615 26,500 -2,880 Descending FlightAware
02:51PM 34.8600 -119.3050 145° Southeast 528 608 25,100 -2,700 Descending FlightAware
02:51PM 34.7930 -119.2480 145° Southeast 514 592 23,600 -2,640 Descending FlightAware
02:52PM 34.7220 -119.1880 145° Southeast 508 585 22,000 -2,580 Descending FlightAware
02:52PM 34.6560 -119.1320 145° Southeast 490 564 20,600 -2,580 Descending FlightAware
02:53PM 34.5900 -119.0760 145° Southeast 478 550 19,100 -2,520 Descending FlightAware
02:54PM 34.5280 -119.0240 145° Southeast 472 543 17,700 -2,400 Descending FlightAware
02:54PM 34.4660 -118.9730 146° Southeast 452 520 16,300 -2,400 Descending FlightAware
02:55PM 34.4050 -118.9220 145° Southeast 438 504 14,900 -2,280 Descending FlightAware
02:55PM 34.3420 -118.8790 151° Southeast 438 504 13,500 -2,100 Descending FlightAware
02:56PM 34.2810 -118.8540 161° South 417 480 12,500 -1,200 Descending FlightAware
02:56PM 34.2140 -118.8290 163° South 387 445 12,200 -600 Descending FlightAware
02:57PM 34.1570 -118.8080 163° South 353 406 11,800 -960 Descending FlightAware
02:58PM 34.1000 -118.7870 163° South 340 391 11,100 -1,500 Descending FlightAware
02:58PM 34.0620 -118.7690 159° South 339 390 10,300 -1,800 Descending FlightAware
02:58PM 34.0510 -118.7580 140° Southeast 346 398 10,100 -960 Descending FlightAware
02:58PM 34.0420 -118.7420 124° Southeast 342 394 10,000 -600 Descending FlightAware
02:59PM 34.0360 -118.7260 114° Southeast 338 389 9,900 -300 Descending FlightAware
02:59PM 34.0340 -118.7060 97° East 323 372 9,900  Level FlightAware
02:59PM 34.0300 -118.6700 98° East 306 352 9,900 -180 Level FlightAware
02:59PM 34.0280 -118.6450 96° East 296 341 9,800 -600 Descending FlightAware
03:00PM 34.0260 -118.6240 97° East 293 337 9,600 -1,140 Descending FlightAware
03:00PM 34.0220 -118.5820 97° East 288 331 9,100 -1,140 Descending FlightAware
03:00PM 34.0190 -118.5540 97° East 289 333 8,700 -1,260 Descending FlightAware
03:01PM 34.0150 -118.5090 96° East 287 330 8,200 -1,080 Descending FlightAware
03:01PM 34.0120 -118.4730 96° East 273 314 7,900 -1,020 Descending FlightAware
03:02PM 34.0140 -118.4280 87° East 251 289 7,300 -1,200 Descending FlightAware
03:02PM 34.0170 -118.4070 80° East 241 277 7,000 -900 Descending FlightAware
03:02PM 34.0220 -118.3720 80° East 230 265 6,700 -660 Descending FlightAware
03:03PM 34.0250 -118.3450 82° East 220 253 6,500 -600 Descending FlightAware
03:03PM 34.0280 -118.3240 80° East 207 238 6,300 -900 Descending FlightAware
03:03PM 34.0310 -118.3010 81° East 177 204 5,900 -1,380 Descending FlightAware
03:04PM 34.0330 -118.2820 83° East 168 193 5,300 -1,920 Descending FlightAware
03:04PM 34.0280 -118.2570 104° East 171 197 4,400 -1,860 Descending FlightAware
03:04PM 34.0200 -118.2520 153° Southeast 173 199 4,100 -1,080 Descending FlightAware
03:05PM 34.0130 -118.2510 173° South 168 193 3,900 -1,020 Descending FlightAware
03:05PM 34.0010 -118.2520 184° South 175 201 3,500 -2,100 Descending FlightAware
03:05PM 33.9790 -118.2650 206° Southwest 180 207 2,700 -2,400 Descending FlightAware
03:05PM 33.9720 -118.2710 215° Southwest 181 208 2,500 -1,080 Descending FlightAware
03:06PM 33.9700 -118.2730 220° Southwest 181 208 2,300 -900 Descending FlightAware
03:06PM 33.9630 -118.2950 249° West 174 200 2,100 -780 Descending FlightAware
03:06PM 33.9610 -118.3200 264° West 170 196 1,700 -1,200 Descending FlightAware
03:07PM 33.9570 -118.3510 261° West 155 178 900 -1,320 Descending FlightAware
03:07PM 33.9550 -118.3710 263° West 149 171 600 -720 Descending FlightAware
03:08PM 33.9540 -118.3850 265° West 146 168 400 -780 Descending FlightAware
03:08PM 33.9520 -118.4030 262° West 149 171 100 -360 Descending FlightAware
03:09PM 33.9500 -118.4230 263° West 147 169 100  Level FlightAware